Time;durP1;ratioP1;P1;durP2;ratioP2;P2;SDS_P1;SDS_P2;PMS_P1;PMS_P2;Temp;Humidity;BMP_temperature;BMP_pressure;BME280_temperature;BME280_humidity;BME280_pressure;Samples;Min_cycle;Max_cycle;Signal;HPM_P1;HPM_P2
2022/07/20 00:02:05;;;;;;;9.88;4.10;;;;;;;14.82;84.93;93719.81;5109087;28;20549;-79
2022/07/20 00:04:31;;;;;;;6.03;3.55;;;;;;;14.74;86.36;93722.69;5109300;28;20435;-79
2022/07/20 00:06:58;;;;;;;9.00;4.25;;;;;;;14.81;85.82;93723.41;5109240;28;20434;-79
2022/07/20 00:12:09;;;;;;;9.10;3.83;;;;;;;14.79;84.85;93709.91;5109077;28;20517;-78
2022/07/20 00:14:37;;;;;;;8.07;4.20;;;;;;;14.77;85.93;93715.31;5109063;28;20047;-79
2022/07/20 00:17:04;;;;;;;7.57;3.80;;;;;;;14.79;85.08;93713.31;5109129;28;20040;-80
2022/07/20 00:19:31;;;;;;;6.53;2.90;;;;;;;14.83;85.14;93708.47;5108657;28;20051;-79
2022/07/20 00:21:58;;;;;;;7.07;3.72;;;;;;;14.88;84.54;93707.78;5108747;28;20425;-79
2022/07/20 00:24:25;;;;;;;7.20;3.58;;;;;;;14.79;85.45;93705.53;5108930;28;20479;-79
2022/07/20 00:26:51;;;;;;;8.65;3.50;;;;;;;14.79;85.09;93710.72;5109004;28;20055;-79
2022/07/20 00:29:18;;;;;;;6.78;3.50;;;;;;;14.81;84.55;93716.44;5108653;28;20047;-79
2022/07/20 00:31:46;;;;;;;7.97;3.70;;;;;;;14.74;84.32;93695.06;5109009;28;20487;-79
2022/07/20 00:34:13;;;;;;;8.82;3.50;;;;;;;14.78;83.69;93698.81;5108817;28;20043;-78
2022/07/20 00:36:40;;;;;;;7.93;4.03;;;;;;;14.83;84.30;93708.47;5108751;28;20047;-78
2022/07/20 00:39:06;;;;;;;9.98;4.65;;;;;;;14.85;84.23;93703.84;5108653;28;20100;-79
2022/07/20 00:41:33;;;;;;;9.95;4.13;;;;;;;14.88;84.21;93705.19;5108952;28;20036;-79
2022/07/20 00:44:02;;;;;;;7.90;4.72;;;;;;;14.84;84.52;93699.69;5109584;28;20627;-79
2022/07/20 00:46:30;;;;;;;7.88;3.65;;;;;;;14.84;84.47;93704.88;5114518;27;20172;-80
2022/07/20 00:48:59;;;;;;;5.80;3.38;;;;;;;14.83;83.84;93704.06;5112464;28;20487;-81
2022/07/20 00:51:26;;;;;;;6.53;4.00;;;;;;;14.85;83.95;93706.44;5112627;28;20039;-80
2022/07/20 00:53:54;;;;;;;6.72;3.80;;;;;;;14.83;85.59;93705.88;5112388;28;20043;-80
2022/07/20 00:56:22;;;;;;;7.47;3.75;;;;;;;14.78;85.34;93709.16;5112055;28;20052;-79
2022/07/20 00:58:49;;;;;;;8.27;4.03;;;;;;;14.65;85.79;93697.19;5112239;28;20048;-80
2022/07/20 01:01:17;;;;;;;5.93;3.30;;;;;;;14.68;85.25;93695.94;5112493;28;20089;-79
2022/07/20 01:03:44;;;;;;;7.28;3.60;;;;;;;14.67;85.15;93699.50;5112319;28;20088;-78
2022/07/20 01:06:12;;;;;;;8.35;3.72;;;;;;;14.67;85.33;93704.69;5112247;28;20043;-77
2022/07/20 01:08:39;;;;;;;6.53;3.58;;;;;;;14.60;85.86;93697.06;5112349;28;20039;-77
2022/07/20 01:11:07;;;;;;;7.38;3.65;;;;;;;14.54;85.48;93703.13;5111769;28;20548;-77
2022/07/20 01:13:34;;;;;;;7.90;4.03;;;;;;;14.46;85.92;93695.66;5111773;28;20042;-77
2022/07/20 01:16:00;;;;;;;8.10;3.58;;;;;;;14.45;86.82;93704.44;5111879;28;20048;-77
2022/07/20 01:18:27;;;;;;;5.70;3.33;;;;;;;14.30;87.29;93698.66;5111938;28;20100;-77
2022/07/20 01:20:59;;;;;;;7.38;3.80;;;;;;;14.24;87.99;93706.50;5111719;28;20104;-77
2022/07/20 01:23:26;;;;;;;6.35;3.47;;;;;;;14.15;88.35;93696.50;5112072;28;20048;-77
2022/07/20 01:25:53;;;;;;;7.35;4.38;;;;;;;14.05;88.21;93693.63;5111694;28;20053;-77
2022/07/20 01:28:20;;;;;;;8.15;4.05;;;;;;;14.10;88.54;93708.47;5111335;28;20737;-77
2022/07/20 01:30:46;;;;;;;7.63;3.50;;;;;;;14.04;88.32;93704.97;5111817;28;20043;-76
2022/07/20 01:33:13;;;;;;;8.20;3.78;;;;;;;13.90;89.58;93699.97;5111537;28;20043;-78
2022/07/20 01:35:40;;;;;;;7.40;3.90;;;;;;;13.81;89.92;93695.31;5111938;28;20043;-79
2022/07/20 01:38:08;;;;;;;6.85;4.03;;;;;;;13.86;89.24;93703.22;5111812;28;20465;-79
2022/07/20 01:40:35;;;;;;;7.13;3.33;;;;;;;13.82;89.87;93708.03;5111789;28;20044;-79
2022/07/20 01:43:02;;;;;;;7.38;4.15;;;;;;;13.75;90.28;93715.06;5111539;28;20089;-79
2022/07/20 01:45:28;;;;;;;5.93;3.85;;;;;;;13.67;91.25;93703.25;5111682;28;20552;-79
2022/07/20 01:47:55;;;;;;;7.78;3.75;;;;;;;13.61;91.18;93715.19;5110509;28;20559;-79
2022/07/20 01:50:22;;;;;;;8.48;3.67;;;;;;;13.60;92.36;93699.94;5111238;28;20043;-79
2022/07/20 01:52:49;;;;;;;7.03;4.22;;;;;;;13.63;91.97;93696.94;5114389;27;20097;-79
2022/07/20 01:55:17;;;;;;;5.70;3.45;;;;;;;13.57;91.86;93711.47;5111230;28;20105;-79
2022/07/20 01:57:44;;;;;;;5.68;3.28;;;;;;;13.59;91.98;93706.91;5111248;28;20458;-78
2022/07/20 02:00:13;;;;;;;7.00;3.50;;;;;;;13.53;92.35;93694.06;5111490;28;20052;-78
2022/07/20 02:02:40;;;;;;;8.88;3.90;;;;;;;13.55;94.19;93703.16;5111656;27;20427;-78
2022/07/20 02:05:08;;;;;;;10.13;4.35;;;;;;;13.22;95.73;93692.16;5111278;28;20438;-78
2022/07/20 02:07:35;;;;;;;6.47;3.55;;;;;;;13.32;95.56;93681.34;5111155;28;20411;-78
2022/07/20 02:10:01;;;;;;;8.30;4.05;;;;;;;13.25;98.59;93696.13;5111340;28;20043;-78
2022/07/20 02:12:30;;;;;;;6.35;3.63;;;;;;;13.08;100.00;93706.19;5111053;28;20100;-77
2022/07/20 02:14:56;;;;;;;6.90;3.50;;;;;;;13.11;99.30;93708.34;5110740;28;20048;-79
2022/07/20 02:17:23;;;;;;;7.25;4.43;;;;;;;13.17;98.15;93709.28;5110893;28;20043;-78
2022/07/20 02:19:50;;;;;;;8.88;3.53;;;;;;;13.29;96.67;93712.72;5111021;28;20047;-78
2022/07/20 02:22:17;;;;;;;6.38;3.80;;;;;;;13.38;95.24;93720.97;5111003;28;20044;-78
2022/07/20 02:24:43;;;;;;;8.13;4.30;;;;;;;13.25;94.79;93693.53;5110588;28;20491;-78
2022/07/20 02:27:10;;;;;;;9.45;3.63;;;;;;;13.39;94.70;93720.00;5110568;28;20054;-78
2022/07/20 02:29:38;;;;;;;8.18;3.53;;;;;;;13.25;94.53;93697.88;5110884;28;20044;-78
2022/07/20 02:32:06;;;;;;;7.28;3.97;;;;;;;13.30;94.39;93716.09;5118690;27;20047;-79
2022/07/20 02:34:32;;;;;;;6.15;3.20;;;;;;;13.35;94.78;93721.41;5131998;27;20452;-78
2022/07/20 02:36:59;;;;;;;7.00;3.25;;;;;;;13.39;94.38;93724.34;5131094;27;20043;-77
2022/07/20 02:39:26;;;;;;;6.55;3.60;;;;;;;13.30;95.21;93711.75;5132124;27;20047;-78
2022/07/20 02:41:52;;;;;;;5.38;3.33;;;;;;;13.30;95.35;93726.41;5131419;27;20039;-78
2022/07/20 02:44:19;;;;;;;6.90;3.30;;;;;;;13.25;95.58;93744.31;5131269;27;20047;-78
2022/07/20 02:46:47;;;;;;;7.10;3.55;;;;;;;13.25;94.95;93731.44;5131490;27;20039;-78
2022/07/20 02:49:14;;;;;;;7.55;3.55;;;;;;;12.70;95.69;93654.53;5131443;27;20039;-78
2022/07/20 02:51:41;;;;;;;8.52;3.92;;;;;;;13.22;94.30;93727.47;5131096;27;20502;-79
2022/07/20 02:54:07;;;;;;;6.93;3.25;;;;;;;13.32;93.81;93719.25;5131203;27;20040;-79
2022/07/20 02:56:34;;;;;;;6.90;4.00;;;;;;;13.16;94.18;93718.03;5131718;27;20088;-79
2022/07/20 02:59:01;;;;;;;7.95;3.85;;;;;;;13.27;94.41;93714.75;5130853;27;20095;-78
2022/07/20 03:01:27;;;;;;;9.40;4.00;;;;;;;13.16;95.46;93729.13;5131581;27;20035;-79
2022/07/20 03:03:55;;;;;;;7.55;3.95;;;;;;;13.17;95.23;93724.75;5131700;27;20436;-78
2022/07/20 03:06:22;;;;;;;6.80;3.75;;;;;;;13.15;95.36;93737.09;5131133;27;20119;-78
2022/07/20 03:08:49;;;;;;;6.75;3.63;;;;;;;13.14;95.29;93736.28;5130149;27;20087;-77
2022/07/20 03:11:16;;;;;;;9.15;3.85;;;;;;;13.07;95.55;93720.88;5131193;27;20379;-78
2022/07/20 03:13:42;;;;;;;10.45;3.55;;;;;;;13.05;96.94;93724.69;5131128;27;20170;-78
2022/07/20 03:16:09;;;;;;;11.27;3.97;;;;;;;13.03;97.38;93739.56;5131256;27;20095;-78
2022/07/20 03:18:36;;;;;;;10.95;4.70;;;;;;;13.11;96.70;93744.47;5131346;27;20379;-78
2022/07/20 03:21:04;;;;;;;8.93;4.25;;;;;;;13.12;97.15;93727.19;5130757;27;20039;-78
2022/07/20 03:23:31;;;;;;;8.48;4.53;;;;;;;12.83;99.63;93725.03;5131076;27;20047;-77
2022/07/20 03:25:57;;;;;;;7.90;4.35;;;;;;;12.79;98.32;93719.53;5131408;27;20051;-78
2022/07/20 03:28:24;;;;;;;8.60;4.53;;;;;;;12.95;99.56;93740.59;5130508;27;20088;-78
2022/07/20 03:30:51;;;;;;;11.25;4.03;;;;;;;12.96;98.99;93744.75;5131101;27;20099;-77
2022/07/20 03:33:18;;;;;;;9.98;4.10;;;;;;;13.05;97.86;93747.88;5130731;27;20089;-78
2022/07/20 03:35:44;;;;;;;8.68;4.75;;;;;;;12.95;98.07;93730.28;5130722;27;20047;-77
2022/07/20 03:38:12;;;;;;;7.28;3.97;;;;;;;13.03;98.02;93752.44;5130693;27;20054;-78
2022/07/20 03:40:39;;;;;;;7.00;4.28;;;;;;;13.03;98.33;93739.56;5130904;27;20047;-78
2022/07/20 03:43:06;;;;;;;8.13;4.25;;;;;;;12.92;98.71;93734.06;5130736;27;20387;-78
2022/07/20 03:45:32;;;;;;;7.00;4.55;;;;;;;12.95;99.05;93750.91;5130409;27;20561;-77
2022/07/20 03:47:59;;;;;;;8.75;4.13;;;;;;;12.99;98.25;93749.50;5130605;27;20047;-77
2022/07/20 03:50:26;;;;;;;9.77;4.15;;;;;;;13.08;98.35;93732.78;5130017;28;20542;-77
2022/07/20 03:52:53;;;;;;;10.15;4.85;;;;;;;13.05;98.35;93753.03;5130305;28;20099;-77
2022/07/20 03:55:22;;;;;;;6.68;3.90;;;;;;;13.10;98.29;93761.72;5130876;28;20194;-78
2022/07/20 03:57:48;;;;;;;11.55;5.10;;;;;;;13.13;97.33;93749.38;5130403;28;20052;-78
2022/07/20 04:00:16;;;;;;;7.25;3.83;;;;;;;13.24;96.60;93756.44;5130571;28;20048;-78
2022/07/20 04:02:43;;;;;;;10.25;4.90;;;;;;;13.25;96.91;93755.44;5129922;28;20495;-78
2022/07/20 04:05:10;;;;;;;8.70;4.55;;;;;;;13.25;97.50;93744.31;5130047;28;20051;-77
2022/07/20 04:07:36;;;;;;;10.77;5.13;;;;;;;13.19;99.16;93761.47;5130293;28;20047;-77
2022/07/20 04:10:04;;;;;;;10.90;4.80;;;;;;;13.31;96.56;93766.69;5130260;28;20047;-78
2022/07/20 04:12:32;;;;;;;10.95;5.10;;;;;;;13.39;96.76;93758.69;5130422;28;20043;-78
2022/07/20 04:14:59;;;;;;;8.15;4.28;;;;;;;13.40;96.05;93754.31;5130130;28;20043;-78
2022/07/20 04:17:25;;;;;;;8.57;4.35;;;;;;;13.55;96.55;93764.31;5130627;28;20043;-78
2022/07/20 04:19:53;;;;;;;8.93;4.68;;;;;;;13.60;96.16;93757.50;5132807;27;20055;-77
2022/07/20 04:22:19;;;;;;;9.32;4.30;;;;;;;13.57;95.93;93755.34;5134156;27;20088;-79
2022/07/20 04:24:46;;;;;;;10.43;4.15;;;;;;;13.72;95.46;93756.81;5134295;27;20103;-79
2022/07/20 04:27:13;;;;;;;7.22;3.95;;;;;;;13.79;95.30;93767.84;5134441;27;20112;-78
2022/07/20 04:29:41;;;;;;;8.90;4.18;;;;;;;13.79;94.84;93744.59;5134363;27;20115;-77
2022/07/20 04:32:09;;;;;;;10.32;4.72;;;;;;;13.90;95.14;93772.28;5134084;27;20047;-80
2022/07/20 04:34:35;;;;;;;9.18;4.15;;;;;;;13.98;95.93;93757.50;5134261;27;20043;-79
2022/07/20 04:37:02;;;;;;;7.82;4.72;;;;;;;14.05;96.58;93760.81;5134166;27;20043;-78
2022/07/20 04:39:29;;;;;;;8.05;4.65;;;;;;;14.13;94.67;93777.78;5134211;27;20122;-79
2022/07/20 04:41:55;;;;;;;11.38;4.72;;;;;;;14.15;97.19;93765.44;5134054;27;20490;-79
2022/07/20 04:44:22;;;;;;;8.40;4.43;;;;;;;14.20;94.15;93765.56;5134076;27;20047;-79
2022/07/20 04:46:50;;;;;;;11.00;5.07;;;;;;;14.27;94.06;93774.03;5134026;27;20047;-79
2022/07/20 04:49:17;;;;;;;11.18;5.22;;;;;;;14.26;93.60;93762.13;5133590;27;20438;-80
2022/07/20 04:51:44;;;;;;;9.65;4.88;;;;;;;14.46;94.59;93770.63;5133500;27;20055;-78
2022/07/20 04:54:11;;;;;;;10.10;4.85;;;;;;;14.50;94.06;93769.97;5133911;27;20039;-79
2022/07/20 04:56:38;;;;;;;10.43;4.78;;;;;;;14.57;94.25;93780.22;5133846;27;20039;-78
2022/07/20 04:59:05;;;;;;;10.00;4.00;;;;;;;14.65;93.00;93769.56;5133822;27;20039;-79
2022/07/20 05:01:31;;;;;;;9.57;4.82;;;;;;;14.63;95.22;93763.81;5133611;27;20440;-79
2022/07/20 05:04:00;;;;;;;8.93;4.68;;;;;;;14.77;95.90;93784.34;5133436;27;20047;-77
2022/07/20 05:06:26;;;;;;;10.35;4.65;;;;;;;14.77;93.34;93772.19;5133727;27;20100;-77
2022/07/20 05:08:53;;;;;;;9.38;5.07;;;;;;;14.94;93.90;93784.50;5133363;27;20043;-77
2022/07/20 05:11:20;;;;;;;9.57;4.82;;;;;;;14.97;92.94;93784.06;5132993;27;20330;-77
2022/07/20 05:13:47;;;;;;;12.45;6.07;;;;;;;15.02;89.89;93783.38;5133333;27;20073;-77
2022/07/20 05:16:13;;;;;;;14.30;6.03;;;;;;;15.15;90.73;93780.59;5132873;27;20047;-77
2022/07/20 05:18:40;;;;;;;16.88;7.75;;;;;;;15.24;89.94;93786.22;5133141;27;20051;-77
2022/07/20 05:21:08;;;;;;;21.10;9.88;;;;;;;15.33;87.93;93792.63;5133078;27;20099;-77
2022/07/20 05:23:35;;;;;;;25.20;11.02;;;;;;;15.48;87.26;93784.44;5132640;27;20049;-77
2022/07/20 05:26:03;;;;;;;40.38;18.13;;;;;;;15.61;86.12;93785.22;5114663;27;20039;-77
2022/07/20 05:28:30;;;;;;;29.77;15.50;;;;;;;15.66;85.28;93784.53;5131432;27;20441;-77
2022/07/20 05:30:57;;;;;;;39.05;18.50;;;;;;;15.88;86.00;93792.50;5131389;27;20535;-77
2022/07/20 05:33:23;;;;;;;42.53;20.48;;;;;;;16.02;85.26;93801.63;5132537;27;20088;-77
2022/07/20 05:35:51;;;;;;;39.72;19.75;;;;;;;16.17;84.77;93797.75;5132089;27;20439;-77
2022/07/20 05:38:20;;;;;;;38.20;18.33;;;;;;;16.33;86.69;93796.25;5132554;27;20070;-77
2022/07/20 05:40:47;;;;;;;31.63;15.45;;;;;;;16.55;85.22;93791.22;5132555;27;20051;-77
2022/07/20 05:43:14;;;;;;;25.58;12.90;;;;;;;16.57;82.94;93796.16;5132538;27;20040;-77
2022/07/20 05:45:41;;;;;;;27.98;12.48;;;;;;;16.66;83.34;93789.56;5131810;27;20103;-77
2022/07/20 05:48:10;;;;;;;23.90;11.98;;;;;;;16.79;83.60;93790.28;5132416;27;20120;-77
2022/07/20 05:50:39;;;;;;;22.20;10.82;;;;;;;17.02;79.50;93781.59;5131930;27;20054;-77
2022/07/20 05:53:06;;;;;;;20.95;10.30;;;;;;;17.33;78.73;93791.69;5132109;27;20047;-77
2022/07/20 05:55:35;;;;;;;21.13;9.27;;;;;;;17.63;76.77;93790.53;5132056;27;20442;-77
2022/07/20 05:58:04;;;;;;;18.55;8.60;;;;;;;17.92;75.42;93792.22;5132306;27;20126;-77
2022/07/20 06:00:30;;;;;;;21.10;8.85;;;;;;;18.25;73.27;93793.16;5132404;27;20043;-77
2022/07/20 06:02:57;;;;;;;19.80;7.80;;;;;;;18.60;71.30;93784.16;5132141;27;20088;-77
2022/07/20 06:05:24;;;;;;;31.27;7.85;;;;;;;18.58;71.33;93782.81;5132163;27;20384;-77
2022/07/20 06:07:51;;;;;;;19.08;8.18;;;;;;;18.80;70.18;93780.19;5131728;27;20047;-77
2022/07/20 06:10:18;;;;;;;17.15;6.57;;;;;;;18.65;69.11;93786.81;5132009;27;20069;-77
2022/07/20 06:12:46;;;;;;;21.30;6.88;;;;;;;18.76;68.21;93794.72;5132065;27;20073;-77
2022/07/20 06:15:13;;;;;;;15.55;7.53;;;;;;;18.86;67.38;93789.59;5132218;27;20047;-77
2022/07/20 06:17:41;;;;;;;18.63;7.20;;;;;;;19.09;67.35;93791.13;5132276;27;20043;-77
2022/07/20 06:20:10;;;;;;;14.70;6.45;;;;;;;19.42;64.72;93792.91;5131556;27;20491;-78
2022/07/20 06:22:37;;;;;;;12.38;5.40;;;;;;;19.66;63.00;93776.94;5131870;27;20047;-78
2022/07/20 06:25:04;;;;;;;14.50;5.05;;;;;;;20.32;63.20;93799.13;5131299;27;20043;-77
2022/07/20 06:27:31;;;;;;;14.35;5.72;;;;;;;20.56;59.74;93793.47;5132038;27;20100;-78
2022/07/20 06:30:00;;;;;;;13.88;5.05;;;;;;;20.76;58.38;93802.38;5132024;27;20051;-78
2022/07/20 06:32:27;;;;;;;14.00;5.95;;;;;;;21.03;56.09;93790.94;5131894;27;20051;-78
2022/07/20 06:34:54;;;;;;;12.90;5.00;;;;;;;20.94;57.24;93757.53;5131508;27;20556;-78
2022/07/20 06:37:21;;;;;;;9.88;4.20;;;;;;;21.49;56.65;93788.28;5131086;27;20047;-78
2022/07/20 06:39:48;;;;;;;15.45;5.50;;;;;;;21.59;58.10;93781.50;5131327;27;20136;-78
2022/07/20 06:42:14;;;;;;;11.02;4.70;;;;;;;22.16;56.35;93783.97;5131234;27;20490;-78
2022/07/20 06:44:41;;;;;;;13.32;5.03;;;;;;;22.54;54.27;93781.72;5124619;27;20047;-78
2022/07/20 06:47:10;;;;;;;15.10;4.93;;;;;;;22.83;52.50;93783.63;5110078;27;20491;-79
2022/07/20 06:49:37;;;;;;;10.50;4.88;;;;;;;23.07;50.42;93756.75;5130265;27;20047;-79
2022/07/20 06:52:04;;;;;;;14.60;5.15;;;;;;;23.49;49.28;93780.00;5130792;27;20051;-79
2022/07/20 06:54:31;;;;;;;13.15;5.47;;;;;;;23.26;49.64;93773.59;5130842;27;20559;-79
2022/07/20 06:56:58;;;;;;;10.45;5.13;;;;;;;23.41;49.45;93760.41;5131027;27;20043;-79
2022/07/20 06:59:25;;;;;;;9.73;4.18;;;;;;;24.02;49.91;93771.31;5130832;27;20103;-79
2022/07/20 07:01:53;;;;;;;9.07;3.65;;;;;;;24.39;47.99;93769.03;5131009;27;20039;-79
2022/07/20 07:04:21;;;;;;;9.63;4.18;;;;;;;24.75;47.20;93766.97;5130740;27;20039;-79
2022/07/20 07:06:47;;;;;;;15.88;5.35;;;;;;;25.27;47.26;93763.59;5131308;27;20452;-79
2022/07/20 07:09:14;;;;;;;12.52;4.03;;;;;;;25.61;46.73;93768.53;5130349;27;20080;-79
2022/07/20 07:11:41;;;;;;;12.07;4.30;;;;;;;25.85;44.01;93767.59;5130487;27;20047;-78
2022/07/20 07:14:08;;;;;;;10.90;3.45;;;;;;;25.33;45.93;93763.22;5130351;27;20533;-78
2022/07/20 07:16:34;;;;;;;6.65;3.08;;;;;;;26.02;44.48;93755.72;5130572;27;20547;-78
2022/07/20 07:19:01;;;;;;;11.45;3.70;;;;;;;25.83;44.03;93753.19;5130207;27;20570;-79
2022/07/20 07:21:29;;;;;;;7.38;3.30;;;;;;;26.24;43.64;93755.00;5130145;27;20043;-82
2022/07/20 07:23:56;;;;;;;7.35;3.28;;;;;;;26.57;44.38;93742.75;5130582;27;20044;-82
2022/07/20 07:26:23;;;;;;;9.80;4.40;;;;;;;27.02;43.41;93750.69;5130130;27;20080;-82
2022/07/20 07:28:50;;;;;;;8.43;4.13;;;;;;;27.23;42.97;93757.34;5130272;27;20059;-80
2022/07/20 07:31:18;;;;;;;11.93;4.18;;;;;;;27.39;40.93;93752.47;5130111;27;20092;-79
2022/07/20 07:33:45;;;;;;;9.38;3.97;;;;;;;27.80;40.93;93746.16;5130544;27;20043;-82
2022/07/20 07:36:12;;;;;;;9.15;3.45;;;;;;;28.06;39.19;93750.72;5130284;27;20058;-81
2022/07/20 07:38:41;;;;;;;7.50;3.20;;;;;;;28.46;40.93;93749.13;5130296;27;20043;-80
2022/07/20 07:41:08;;;;;;;10.52;2.70;;;;;;;28.87;39.19;93744.47;5130218;27;20047;-81
2022/07/20 07:43:35;;;;;;;5.70;2.50;;;;;;;29.07;37.66;93745.69;5130198;27;20043;-82
2022/07/20 07:46:02;;;;;;;6.40;2.78;;;;;;;29.29;36.94;93752.63;5130147;27;20452;-81
2022/07/20 07:48:29;;;;;;;9.55;2.28;;;;;;;29.52;37.26;93741.09;5130199;27;20096;-80
2022/07/20 07:50:56;;;;;;;6.45;2.30;;;;;;;29.74;36.15;93748.00;5129727;27;20571;-80
2022/07/20 07:53:22;;;;;;;8.52;2.30;;;;;;;29.98;35.94;93744.00;5129046;27;20051;-81
2022/07/20 07:55:51;;;;;;;4.47;1.92;;;;;;;30.12;35.42;93741.13;5129761;28;20551;-81
2022/07/20 07:58:17;;;;;;;7.38;1.98;;;;;;;29.60;34.00;93745.56;5130056;28;20047;-79
2022/07/20 08:00:44;;;;;;;4.68;2.00;;;;;;;28.48;35.36;93747.72;5129503;28;20099;-79
2022/07/20 08:03:11;;;;;;;3.95;2.00;;;;;;;27.97;37.12;93740.16;5130410;28;20088;-79
2022/07/20 08:05:38;;;;;;;4.53;1.40;;;;;;;28.30;36.36;93735.56;5130175;28;20100;-79
2022/07/20 08:08:10;;;;;;;2.95;1.80;;;;;;;28.73;37.91;93734.81;5130057;28;20042;-80
2022/07/20 08:10:37;;;;;;;4.97;1.60;;;;;;;28.51;35.26;93739.16;5130089;28;20047;-80
2022/07/20 08:13:05;;;;;;;2.13;1.00;;;;;;;27.72;36.01;93733.72;5129523;28;20095;-80
2022/07/20 08:15:32;;;;;;;4.43;1.48;;;;;;;28.13;37.42;93727.28;5130102;28;20096;-80
2022/07/20 08:17:59;;;;;;;5.53;1.70;;;;;;;27.57;35.84;93734.84;5129914;28;20103;-79
2022/07/20 08:20:26;;;;;;;2.55;1.27;;;;;;;26.46;37.42;93715.84;5130137;28;20078;-80
2022/07/20 08:22:53;;;;;;;3.05;1.40;;;;;;;26.15;37.92;93735.72;5129861;28;20186;-80
2022/07/20 08:25:21;;;;;;;4.47;1.70;;;;;;;26.79;38.25;93737.50;5115989;28;20051;-79
2022/07/20 08:27:47;;;;;;;5.47;1.20;;;;;;;26.26;38.60;93733.66;5122681;28;20088;-78
2022/07/20 08:30:17;;;;;;;4.90;1.55;;;;;;;26.00;38.85;93736.78;5127657;28;20059;-80
2022/07/20 08:32:44;;;;;;;1.65;1.10;;;;;;;26.62;38.91;93724.97;5113836;28;20047;-80
2022/07/20 08:35:11;;;;;;;5.95;1.42;;;;;;;26.76;38.82;93730.19;5126924;28;20079;-81
2022/07/20 08:37:38;;;;;;;2.67;1.45;;;;;;;26.36;38.20;93708.94;5108443;28;20403;-81
2022/07/20 08:40:06;;;;;;;2.08;1.33;;;;;;;26.37;38.44;93727.09;5108616;28;20123;-79
2022/07/20 08:42:33;;;;;;;3.25;1.30;;;;;;;26.60;37.19;93731.63;5111014;28;20088;-79
2022/07/20 08:45:00;;;;;;;4.07;1.48;;;;;;;27.20;37.98;93730.50;5128491;28;20553;-79
2022/07/20 08:47:30;;;;;;;8.02;1.80;;;;;;;26.64;38.68;93727.31;5128747;28;20032;-79
2022/07/20 08:49:57;;;;;;;2.42;1.48;;;;;;;26.79;39.75;93731.44;5118561;28;20053;-79
2022/07/20 08:52:24;;;;;;;5.97;1.73;;;;;;;26.59;37.87;93720.31;5129306;28;20107;-79
2022/07/20 08:54:51;;;;;;;3.88;1.60;;;;;;;26.35;38.62;93725.84;5128979;28;20047;-79
2022/07/20 08:57:18;;;;;;;3.15;1.90;;;;;;;25.95;39.08;93729.78;5129370;28;20047;-79
2022/07/20 08:59:46;;;;;;;3.42;1.58;;;;;;;25.57;40.28;93728.13;5129629;28;20047;-78
2022/07/20 09:02:13;;;;;;;3.88;1.90;;;;;;;25.76;40.84;93735.13;5129782;28;20095;-78
2022/07/20 09:04:55;;;;;;;4.63;1.40;;;;;;;26.01;38.84;93722.56;5129476;27;20043;-79
2022/07/20 09:07:39;;;;;;;3.28;1.48;;;;;;;25.92;40.09;93719.81;5132155;27;20479;-79
2022/07/20 09:10:08;;;;;;;4.10;1.33;;;;;;;26.06;38.26;93722.44;5133503;27;20403;-79
2022/07/20 09:13:00;;;;;;;6.97;1.55;;;;;;;26.11;38.25;93730.22;5133043;27;20047;-80
2022/07/20 09:15:37;;;;;;;2.63;1.30;;;;;;;25.93;37.97;93717.97;5132916;27;20039;-80
2022/07/20 09:18:16;;;;;;;2.83;1.25;;;;;;;25.86;37.52;93723.63;5132431;27;20043;-79
2022/07/20 09:20:46;;;;;;;4.03;1.23;;;;;;;25.80;37.89;93717.69;5132718;27;20065;-80
2022/07/20 09:23:14;;;;;;;3.40;1.50;;;;;;;26.04;37.56;93724.59;5132265;27;20551;-79
2022/07/20 09:25:53;;;;;;;2.75;1.20;;;;;;;26.14;37.86;93718.34;5132571;27;20047;-80
2022/07/20 09:28:20;;;;;;;5.30;1.30;;;;;;;26.44;37.28;93725.91;5132576;27;20072;-79
2022/07/20 09:30:53;;;;;;;2.58;1.15;;;;;;;25.88;37.81;93719.63;5132979;27;20051;-80
2022/07/20 09:33:27;;;;;;;2.10;1.17;;;;;;;26.17;37.29;93716.97;5132888;27;20047;-81
2022/07/20 09:35:56;;;;;;;2.38;1.10;;;;;;;26.99;36.16;93722.31;5130887;27;20084;-81
2022/07/20 09:38:31;;;;;;;2.30;1.00;;;;;;;26.90;36.03;93716.19;5132646;27;20051;-79
2022/07/20 09:40:58;;;;;;;2.65;1.10;;;;;;;26.46;35.92;93713.22;5132820;27;20079;-79
2022/07/20 09:43:27;;;;;;;3.03;0.90;;;;;;;26.87;35.50;93706.22;5132542;27;20035;-80
2022/07/20 09:45:54;;;;;;;4.60;1.52;;;;;;;26.70;35.83;93705.03;5132585;27;20061;-79
2022/07/20 09:48:24;;;;;;;3.28;1.30;;;;;;;26.60;35.88;93713.19;5111668;27;20143;-80
2022/07/20 09:50:51;;;;;;;2.22;0.95;;;;;;;26.59;36.23;93712.41;5113652;27;20043;-80
2022/07/20 09:53:23;;;;;;;4.20;1.75;;;;;;;27.11;36.43;93694.63;5115561;27;20048;-79
2022/07/20 09:55:52;;;;;;;2.15;1.30;;;;;;;26.73;34.90;93706.28;5111930;28;20039;-80
2022/07/20 09:58:23;;;;;;;3.42;1.00;;;;;;;26.62;35.52;93703.88;5112450;28;20043;-79
2022/07/20 10:00:58;;;;;;;2.60;1.13;;;;;;;26.85;34.49;93695.22;5112302;28;20039;-81
2022/07/20 10:03:26;;;;;;;4.45;1.27;;;;;;;26.94;34.16;93696.84;5112556;27;20058;-79
2022/07/20 10:05:53;;;;;;;3.05;1.20;;;;;;;26.91;34.42;93700.06;5110770;27;20491;-79
2022/07/20 10:08:21;;;;;;;2.22;1.00;;;;;;;27.19;34.31;93689.38;5110685;28;20047;-79
2022/07/20 10:10:48;;;;;;;4.10;1.45;;;;;;;27.20;35.29;93690.16;5116100;27;20109;-79
2022/07/20 10:13:15;;;;;;;4.47;1.40;;;;;;;27.21;34.30;93687.22;5126605;27;20062;-80
2022/07/20 10:15:54;;;;;;;3.42;1.05;;;;;;;27.25;35.34;93684.00;5116455;27;20092;-80
2022/07/20 10:18:21;;;;;;;2.20;0.90;;;;;;;27.70;34.74;93675.16;5121822;27;20059;-80
2022/07/20 10:20:49;;;;;;;1.88;1.00;;;;;;;27.33;35.21;93680.59;5128338;27;20047;-78
2022/07/20 10:23:34;;;;;;;3.35;1.20;;;;;;;27.47;33.57;93681.28;5132182;27;20055;-78
2022/07/20 10:26:01;;;;;;;3.53;0.98;;;;;;;27.32;33.33;93673.78;5132060;27;20047;-79
2022/07/20 10:28:34;;;;;;;3.42;1.00;;;;;;;27.38;34.00;93664.63;5132131;27;20058;-78
2022/07/20 10:31:05;;;;;;;3.95;1.00;;;;;;;27.58;33.18;93673.09;5131366;27;20059;-78
2022/07/20 10:33:34;;;;;;;2.35;0.70;;;;;;;27.79;30.76;93665.41;5131681;27;20050;-80
2022/07/20 10:38:57;;;;;;;1.40;0.77;;;;;;;27.14;33.08;93662.34;5131561;27;20559;-78
2022/07/20 10:41:33;;;;;;;2.03;0.90;;;;;;;27.02;32.97;93639.22;5131031;27;20391;-79
2022/07/20 10:44:28;;;;;;;3.03;0.98;;;;;;;27.38;33.27;93656.72;5131117;27;20517;-80
2022/07/20 10:46:56;;;;;;;8.02;1.10;;;;;;;27.32;32.49;93653.44;5125048;27;20586;-79
2022/07/20 10:49:56;;;;;;;3.28;0.80;;;;;;;26.89;32.77;93643.47;5130816;27;20046;-82
2022/07/20 10:52:32;;;;;;;1.50;0.77;;;;;;;27.07;32.27;93650.41;5131383;27;20047;-81
2022/07/20 10:55:00;;;;;;;3.15;1.02;;;;;;;27.03;32.43;93641.53;5131198;27;20043;-80
2022/07/20 10:57:27;;;;;;;3.53;1.00;;;;;;;27.15;33.99;93640.97;5130741;27;20047;-80
2022/07/20 11:00:12;;;;;;;3.03;1.15;;;;;;;27.51;32.21;93641.88;5130899;27;20066;-80
2022/07/20 11:02:39;;;;;;;5.10;1.60;;;;;;;27.13;33.05;93637.09;5131156;27;20068;-80
2022/07/20 11:05:19;;;;;;;4.53;0.88;;;;;;;27.41;32.71;93647.44;5130837;27;20092;-81
2022/07/20 11:07:45;;;;;;;3.15;0.80;;;;;;;27.57;32.46;93627.44;5130614;27;20517;-80
2022/07/20 11:10:24;;;;;;;2.25;1.23;;;;;;;27.48;32.92;93637.97;5131013;27;20058;-79
2022/07/20 11:12:56;;;;;;;2.78;1.25;;;;;;;27.73;32.40;93637.59;5124276;27;20062;-81
2022/07/20 11:15:23;;;;;;;1.67;0.90;;;;;;;28.01;32.12;93640.75;5118725;27;20069;-81
2022/07/20 11:17:51;;;;;;;4.07;0.90;;;;;;;28.34;32.41;93639.53;5130168;27;20054;-81
2022/07/20 11:20:18;;;;;;;2.65;1.30;;;;;;;28.06;31.08;93646.97;5127590;27;20040;-81
2022/07/20 11:22:45;;;;;;;3.65;1.55;;;;;;;27.83;32.09;93641.81;5130337;27;20039;-81
2022/07/20 11:25:12;;;;;;;2.65;1.35;;;;;;;28.31;32.13;93632.22;5130309;27;20119;-81
2022/07/20 11:27:40;;;;;;;2.17;1.15;;;;;;;28.18;31.66;93643.72;5129533;27;20499;-81
2022/07/20 11:30:08;;;;;;;3.10;1.05;;;;;;;28.04;31.09;93641.97;5129041;27;20047;-81
2022/07/20 11:32:35;;;;;;;2.38;0.90;;;;;;;28.17;32.14;93636.88;5130023;27;20083;-80
2022/07/20 11:35:05;;;;;;;3.17;0.98;;;;;;;28.08;32.24;93624.44;5129814;27;20047;-80
2022/07/20 11:37:32;;;;;;;2.08;1.05;;;;;;;27.78;32.95;93619.00;5130174;27;20047;-81
2022/07/20 11:39:58;;;;;;;3.00;1.13;;;;;;;28.30;32.79;93624.63;5130336;27;20043;-81
2022/07/20 11:42:25;;;;;;;3.45;1.50;;;;;;;28.33;31.83;93626.66;5130254;27;20091;-81